Simcha — PE7688 — position and weather

sailwx.info

Track history (hours):
 
Tides and Currents Weather Stations Pressure Air Temp Water Temp Dewpoint Dewpoint Depression Visibility Wind Speed Wind Dir Waves Ship Positions

Simcha

Last reported at 2017-Jun-25 12:24 UTC. Time now 2017-Jun-26 03:51 UTC.
Position N 50°52' E 007°01'.

Length 110 m.

MMSI: 244780014.

Date/timePositionNaut miles runAvg speedWind from/ knotsBaromVisibWave heightAir tempDewpointWater temp
2017-Jun-25 12:24N 50°52' E 007°01'4 2.6
2017-Jun-25 11:02N 50°55' E 006°59'0 4.6
2017-Jun-25 10:58N 50°55' E 006°58'15 3.3
2017-Jun-25 06:28N 51°09' E 006°48'2 4.3
2017-Jun-25 06:00N 51°11' E 006°48'2 4.5
2017-Jun-25 05:30N 51°11' E 006°44'2 4.7
2017-Jun-25 05:00N 51°13' E 006°43'2 2.9
2017-Jun-25 04:23N 51°14' E 006°46'10 0.6
2017-Jun-24 11:27N 51°23' E 006°44'2 4.3
2017-Jun-24 11:01N 51°25' E 006°44'1 0.3
2017-Jun-24 08:36N 51°26' E 006°45'0 0.8
2017-Jun-24 08:31N 51°26' E 006°45'0 0.0
2017-Jun-24 08:01N 51°26' E 006°45'0 0.0
2017-Jun-24 07:31N 51°26' E 006°45'0 0.0
2017-Jun-24 07:01N 51°26' E 006°45'0 0.0
2017-Jun-24 06:31N 51°26' E 006°45'0 0.0
2017-Jun-24 06:01N 51°26' E 006°45'0 0.0
2017-Jun-24 05:31N 51°26' E 006°45'0 0.0
2017-Jun-24 05:00N 51°26' E 006°45'0 0.0
2017-Jun-24 04:31N 51°26' E 006°45'0 0.0
2017-Jun-24 04:01N 51°26' E 006°45'0 0.0
2017-Jun-24 03:31N 51°26' E 006°45'0 0.0
2017-Jun-24 03:00N 51°26' E 006°45'0 0.0
2017-Jun-24 02:31N 51°26' E 006°45'0 0.0
2017-Jun-24 02:01N 51°26' E 006°45'0 0.0
2017-Jun-24 01:31N 51°26' E 006°45'0 0.0
2017-Jun-24 01:01N 51°26' E 006°45'0 0.0
2017-Jun-24 00:31N 51°26' E 006°45'0 0.0
2017-Jun-24 00:01N 51°26' E 006°45'0 0.0
2017-Jun-23 23:31N 51°26' E 006°45'0 0.0
2017-Jun-23 23:01N 51°26' E 006°45'0 0.0
2017-Jun-23 22:31N 51°26' E 006°45'0 0.0
2017-Jun-23 22:00N 51°26' E 006°45'0 0.0
2017-Jun-23 21:31N 51°26' E 006°45'0 0.0
2017-Jun-23 21:01N 51°26' E 006°45'0 0.0
2017-Jun-23 20:31N 51°26' E 006°45'0 0.0
2017-Jun-23 20:01N 51°26' E 006°45'0 0.0
2017-Jun-23 19:31N 51°26' E 006°45'0 0.0
2017-Jun-23 19:00N 51°26' E 006°45'0 0.0
2017-Jun-23 18:30N 51°26' E 006°45'0 0.0
2017-Jun-23 18:00N 51°26' E 006°45'0 0.2
2017-Jun-23 17:30N 51°26' E 006°45'0 0.0
2017-Jun-23 17:00N 51°26' E 006°45'0 0.0
2017-Jun-23 16:30N 51°26' E 006°45'1 1.6
2017-Jun-23 16:00N 51°26' E 006°44'1 1.5
2017-Jun-23 15:30N 51°26' E 006°45'0 0.1
2017-Jun-23 15:00N 51°26' E 006°45'0 0.0
2017-Jun-23 14:00N 51°26' E 006°45'0 0.0
2017-Jun-23 13:30N 51°26' E 006°45'0 0.0
2017-Jun-23 13:00N 51°26' E 006°45'0 0.0
2017-Jun-23 12:30N 51°26' E 006°45'0 0.0
2017-Jun-23 12:00N 51°26' E 006°45'0 0.0
2017-Jun-22 20:23N 51°26' E 006°45'1 3.0
2017-Jun-22 20:00N 51°26' E 006°43'2 3.4
2017-Jun-22 19:30N 51°28' E 006°44'2 4.0
2017-Jun-22 19:00N 51°29' E 006°41'3 4.2
2017-Jun-22 18:22N 51°31' E 006°43'7 3.5
2017-Jun-22 16:29N 51°35' E 006°36'3 4.6
2017-Jun-22 15:56N 51°38' E 006°36'2 4.0
2017-Jun-22 15:30N 51°40' E 006°35'8 4.0
2017-Jun-22 13:28N 51°45' E 006°25'4 4.7
2017-Jun-22 12:36N 51°47' E 006°19'1 5.5
2017-Jun-22 12:30N 51°47' E 006°19'3 5.7
2017-Jun-22 12:00N 51°49' E 006°16'3 5.2
2017-Jun-22 11:30N 51°50' E 006°12'2 4.7
2017-Jun-22 11:00N 51°51' E 006°08'3 5.2
2017-Jun-22 10:30N 51°52' E 006°04'1 2.4
2017-Jun-22 10:00N 51°52' E 006°03'0 0.0
2017-Jun-22 09:30N 51°52' E 006°02'0 0.9
2017-Jun-22 09:00N 51°53' E 006°02'3 5.3
2017-Jun-22 08:30N 51°55' E 005°59'3 5.3
2017-Jun-22 08:00N 51°57' E 005°57'2 4.1
2017-Jun-22 07:30N 51°58' E 005°55'22 1.7
2017-Jun-21 19:02N 51°58' E 005°19'0 2.9
2017-Jun-21 19:00N 51°58' E 005°19'0 0.1
2017-Jun-21 18:30N 51°58' E 005°19'7 6.9
2017-Jun-21 17:27N 52°01' E 005°08'3 7.4
2017-Jun-21 17:00N 52°04' E 005°06'10 7.0
2017-Jun-21 15:30N 52°14' E 005°00'4 7.4
2017-Jun-21 14:59N 52°18' E 005°01'3 7.2
2017-Jun-21 14:30N 52°21' E 004°59'5 4.9
2017-Jun-21 13:30N 52°24' E 004°53'0 0.3
2017-Jun-21 13:00N 52°24' E 004°53'4 7.2
2017-Jun-21 12:31N 52°25' E 004°47'4 7.8
2017-Jun-21 12:00N 52°27' E 004°41'3 6.4
2017-Jun-21 11:30N 52°28' E 004°36'1 1.0
2017-Jun-21 11:00N 52°28' E 004°36'0 0.9
2017-Jun-21 10:30N 52°28' E 004°35'0 0.3
2017-Jun-21 10:00N 52°28' E 004°35'0 0.0
2017-Jun-21 09:30N 52°28' E 004°35'0 0.0
2017-Jun-21 09:00N 52°28' E 004°35'0 0.0
2017-Jun-21 08:30N 52°28' E 004°35'1 1.1
2017-Jun-21 08:00N 52°28' E 004°36'0 0.0
2017-Jun-21 07:30N 52°28' E 004°36'0 0.0
2017-Jun-21 07:00N 52°28' E 004°36'0 0.0
2017-Jun-21 06:30N 52°28' E 004°36'0 0.0
2017-Jun-21 06:00N 52°28' E 004°36'0 0.0
2017-Jun-21 05:30N 52°28' E 004°36'0 0.0
2017-Jun-21 05:00N 52°28' E 004°36'0 0.0
2017-Jun-21 04:30N 52°28' E 004°36'0 0.0
2017-Jun-21 04:00N 52°28' E 004°36'0 0.0
2017-Jun-21 03:30N 52°28' E 004°36'0 0.0
2017-Jun-21 03:00N 52°28' E 004°36'0 0.0
2017-Jun-21 02:30N 52°28' E 004°36'0 0.0
2017-Jun-21 02:00N 52°28' E 004°36'0 0.0
2017-Jun-21 01:30N 52°28' E 004°36'0 0.0
2017-Jun-21 01:00N 52°28' E 004°36'0 0.0
2017-Jun-21 00:30N 52°28' E 004°36'0 0.0
2017-Jun-21 00:00N 52°28' E 004°36'0 0.0
2017-Jun-20 23:30N 52°28' E 004°36'0 0.0
2017-Jun-20 23:00N 52°28' E 004°36'0 0.0
2017-Jun-20 22:30N 52°28' E 004°36'0 0.0
2017-Jun-20 22:00N 52°28' E 004°36'0 0.0
2017-Jun-20 21:30N 52°28' E 004°36'0 0.0
2017-Jun-20 21:00N 52°28' E 004°36'0 0.0
2017-Jun-20 20:30N 52°28' E 004°36'0 0.0
2017-Jun-20 20:00N 52°28' E 004°36'0 0.0
2017-Jun-20 19:30N 52°28' E 004°36'0 0.0
2017-Jun-20 19:00N 52°28' E 004°36'0 0.6
2017-Jun-20 18:30N 52°28' E 004°36'1 2.0
2017-Jun-20 18:01N 52°28' E 004°38'4 7.5
2017-Jun-20 17:30N 52°26' E 004°43'4 7.2
2017-Jun-20 17:00N 52°26' E 004°49'0 0.0
2017-Jun-20 16:30N 52°26' E 004°49'0 0.0
2017-Jun-20 16:00N 52°26' E 004°49'0 0.0
2017-Jun-20 15:30N 52°26' E 004°49'0 0.0
2017-Jun-20 15:01N 52°26' E 004°49'0 0.0
2017-Jun-20 14:00N 52°26' E 004°49'0 0.0
2017-Jun-20 13:31N 52°26' E 004°49'0 0.0
2017-Jun-20 13:01N 52°26' E 004°49'0 0.0
2017-Jun-20 12:30N 52°26' E 004°49'0 0.0
2017-Jun-20 12:00N 52°26' E 004°49'0 0.0
2017-Jun-20 11:30N 52°26' E 004°49'0 0.0
2017-Jun-20 11:00N 52°26' E 004°49'0 0.0
2017-Jun-20 10:30N 52°26' E 004°49'0 0.0
2017-Jun-20 10:00N 52°26' E 004°49'0 0.0
2017-Jun-20 09:31N 52°26' E 004°49'0 0.0
2017-Jun-20 09:01N 52°26' E 004°49'0 0.0
2017-Jun-20 08:31N 52°26' E 004°49'0 0.0
2017-Jun-20 08:00N 52°26' E 004°49'0 0.0
2017-Jun-20 07:30N 52°26' E 004°49'0 0.0
2017-Jun-20 07:01N 52°26' E 004°49'0 0.0
2017-Jun-20 06:30N 52°26' E 004°49'0 0.0
2017-Jun-20 06:00N 52°26' E 004°49'0 0.0
2017-Jun-20 05:30N 52°26' E 004°49'0 0.0
2017-Jun-20 05:00N 52°26' E 004°49'0 0.0
2017-Jun-20 04:30N 52°26' E 004°49'0 0.0
2017-Jun-20 04:00N 52°26' E 004°49'0 0.0
2017-Jun-20 03:30N 52°26' E 004°49'0 0.0
2017-Jun-20 03:00N 52°26' E 004°49'0 0.0
2017-Jun-20 02:30N 52°26' E 004°49'0 0.0
2017-Jun-20 02:00N 52°26' E 004°49'0 0.0
2017-Jun-20 01:30N 52°26' E 004°49'0 0.0
2017-Jun-20 01:00N 52°26' E 004°49'0 0.0
2017-Jun-20 00:30N 52°26' E 004°49'0 0.0
2017-Jun-20 00:00N 52°26' E 004°49'0 0.0
2017-Jun-19 23:30N 52°26' E 004°49'0 0.0
2017-Jun-19 23:01N 52°26' E 004°49'0 0.0
2017-Jun-19 22:30N 52°26' E 004°49'0 0.0
2017-Jun-19 22:00N 52°26' E 004°49'0 0.0
2017-Jun-19 21:30N 52°26' E 004°49'0 0.0
2017-Jun-19 21:00N 52°26' E 004°49'0 0.0
2017-Jun-19 20:30N 52°26' E 004°49'0 0.7
2017-Jun-19 20:00N 52°25' E 004°49'3 6.8
2017-Jun-19 19:30N 52°23' E 004°54'3 5.5
2017-Jun-19 19:01N 52°22' E 004°58'3 6.6
2017-Jun-19 18:30N 52°19' E 005°01'3 6.8
2017-Jun-19 18:00N 52°16' E 005°01'10 6.1
2017-Jun-19 16:24N 52°06' E 005°05'3 7.0
2017-Jun-19 16:00N 52°04' E 005°06'8 6.9
2017-Jun-19 14:47N 51°59' E 005°17'2 5.7
2017-Jun-19 14:30N 51°58' E 005°19'16 5.9
2017-Jun-19 11:43N 51°53' E 005°44'2 8.8
2017-Jun-19 11:30N 51°53' E 005°48'4 7.0
2017-Jun-19 11:00N 51°52' E 005°53'3 6.9
2017-Jun-19 10:30N 51°51' E 005°59'3 6.5
2017-Jun-19 10:00N 51°52' E 006°04'4 8.6
2017-Jun-19 09:30N 51°50' E 006°10'4 8.6
2017-Jun-19 09:00N 51°49' E 006°17'6 8.1
2017-Jun-19 08:17N 51°45' E 006°24'7 7.3
2017-Jun-19 07:20N 51°40' E 006°31'3 8.9
2017-Jun-19 07:00N 51°39' E 006°36'9 6.5
2017-Jun-19 05:38N 51°31' E 006°42'1 9.0
2017-Jun-19 05:31N 51°31' E 006°43'3 5.2
2017-Jun-19 05:01N 51°28' E 006°43'4 7.9
2017-Jun-19 04:30N 51°24' E 006°45'10 1.0
2017-Jun-18 18:33N 51°14' E 006°46'1 9.5
2017-Jun-18 18:29N 51°14' E 006°46'3 5.4
2017-Jun-18 18:00N 51°12' E 006°44'19 6.1
2017-Jun-18 14:50N 50°55' E 006°58'3 6.3
2017-Jun-18 14:17N 50°52' E 007°02'  
Track history (hours):
 
Tides and Currents Weather Stations Pressure Air Temp Water Temp Dewpoint Dewpoint Depression Visibility Wind Speed Wind Dir Waves Ship Positions

Simcha

Last reported at 2017-Jun-25 12:24 UTC. Time now 2017-Jun-26 03:51 UTC.
Position N 50°52' E 007°01'.

Length 110 m.

MMSI: 244780014.

Date/timePositionNaut miles runAvg speedWind from/ knotsBaromVisibWave heightAir tempDewpointWater temp
2017-Jun-25 12:24N 50°52' E 007°01'4 2.6
2017-Jun-25 11:02N 50°55' E 006°59'0 4.6
2017-Jun-25 10:58N 50°55' E 006°58'15 3.3
2017-Jun-25 06:28N 51°09' E 006°48'2 4.3
2017-Jun-25 06:00N 51°11' E 006°48'2 4.5
2017-Jun-25 05:30N 51°11' E 006°44'2 4.7
2017-Jun-25 05:00N 51°13' E 006°43'2 2.9
2017-Jun-25 04:23N 51°14' E 006°46'10 0.6
2017-Jun-24 11:27N 51°23' E 006°44'2 4.3
2017-Jun-24 11:01N 51°25' E 006°44'1 0.3
2017-Jun-24 08:36N 51°26' E 006°45'0 0.8
2017-Jun-24 08:31N 51°26' E 006°45'0 0.0
2017-Jun-24 08:01N 51°26' E 006°45'0 0.0
2017-Jun-24 07:31N 51°26' E 006°45'0 0.0
2017-Jun-24 07:01N 51°26' E 006°45'0 0.0
2017-Jun-24 06:31N 51°26' E 006°45'0 0.0
2017-Jun-24 06:01N 51°26' E 006°45'0 0.0
2017-Jun-24 05:31N 51°26' E 006°45'0 0.0
2017-Jun-24 05:00N 51°26' E 006°45'0 0.0
2017-Jun-24 04:31N 51°26' E 006°45'0 0.0
2017-Jun-24 04:01N 51°26' E 006°45'0 0.0
2017-Jun-24 03:31N 51°26' E 006°45'0 0.0
2017-Jun-24 03:00N 51°26' E 006°45'0 0.0
2017-Jun-24 02:31N 51°26' E 006°45'0 0.0
2017-Jun-24 02:01N 51°26' E 006°45'0 0.0
2017-Jun-24 01:31N 51°26' E 006°45'0 0.0
2017-Jun-24 01:01N 51°26' E 006°45'0 0.0
2017-Jun-24 00:31N 51°26' E 006°45'0 0.0
2017-Jun-24 00:01N 51°26' E 006°45'0 0.0
2017-Jun-23 23:31N 51°26' E 006°45'0 0.0
2017-Jun-23 23:01N 51°26' E 006°45'0 0.0
2017-Jun-23 22:31N 51°26' E 006°45'0 0.0
2017-Jun-23 22:00N 51°26' E 006°45'0 0.0
2017-Jun-23 21:31N 51°26' E 006°45'0 0.0
2017-Jun-23 21:01N 51°26' E 006°45'0 0.0
2017-Jun-23 20:31N 51°26' E 006°45'0 0.0
2017-Jun-23 20:01N 51°26' E 006°45'0 0.0
2017-Jun-23 19:31N 51°26' E 006°45'0 0.0
2017-Jun-23 19:00N 51°26' E 006°45'0 0.0
2017-Jun-23 18:30N 51°26' E 006°45'0 0.0
2017-Jun-23 18:00N 51°26' E 006°45'0 0.2
2017-Jun-23 17:30N 51°26' E 006°45'0 0.0
2017-Jun-23 17:00N 51°26' E 006°45'0 0.0
2017-Jun-23 16:30N 51°26' E 006°45'1 1.6
2017-Jun-23 16:00N 51°26' E 006°44'1 1.5
2017-Jun-23 15:30N 51°26' E 006°45'0 0.1
2017-Jun-23 15:00N 51°26' E 006°45'0 0.0
2017-Jun-23 14:00N 51°26' E 006°45'0 0.0
2017-Jun-23 13:30N 51°26' E 006°45'0 0.0
2017-Jun-23 13:00N 51°26' E 006°45'0 0.0
2017-Jun-23 12:30N 51°26' E 006°45'0 0.0
2017-Jun-23 12:00N 51°26' E 006°45'0 0.0
2017-Jun-22 20:23N 51°26' E 006°45'1 3.0
2017-Jun-22 20:00N 51°26' E 006°43'2 3.4
2017-Jun-22 19:30N 51°28' E 006°44'2 4.0
2017-Jun-22 19:00N 51°29' E 006°41'3 4.2
2017-Jun-22 18:22N 51°31' E 006°43'7 3.5
2017-Jun-22 16:29N 51°35' E 006°36'3 4.6
2017-Jun-22 15:56N 51°38' E 006°36'2 4.0
2017-Jun-22 15:30N 51°40' E 006°35'8 4.0
2017-Jun-22 13:28N 51°45' E 006°25'4 4.7
2017-Jun-22 12:36N 51°47' E 006°19'1 5.5
2017-Jun-22 12:30N 51°47' E 006°19'3 5.7
2017-Jun-22 12:00N 51°49' E 006°16'3 5.2
2017-Jun-22 11:30N 51°50' E 006°12'2 4.7
2017-Jun-22 11:00N 51°51' E 006°08'3 5.2
2017-Jun-22 10:30N 51°52' E 006°04'1 2.4
2017-Jun-22 10:00N 51°52' E 006°03'0 0.0
2017-Jun-22 09:30N 51°52' E 006°02'0 0.9
2017-Jun-22 09:00N 51°53' E 006°02'3 5.3
2017-Jun-22 08:30N 51°55' E 005°59'3 5.3
2017-Jun-22 08:00N 51°57' E 005°57'2 4.1
2017-Jun-22 07:30N 51°58' E 005°55'22 1.7
2017-Jun-21 19:02N 51°58' E 005°19'0 2.9
2017-Jun-21 19:00N 51°58' E 005°19'0 0.1
2017-Jun-21 18:30N 51°58' E 005°19'7 6.9
2017-Jun-21 17:27N 52°01' E 005°08'3 7.4
2017-Jun-21 17:00N 52°04' E 005°06'10 7.0
2017-Jun-21 15:30N 52°14' E 005°00'4 7.4
2017-Jun-21 14:59N 52°18' E 005°01'3 7.2
2017-Jun-21 14:30N 52°21' E 004°59'5 4.9
2017-Jun-21 13:30N 52°24' E 004°53'0 0.3
2017-Jun-21 13:00N 52°24' E 004°53'4 7.2
2017-Jun-21 12:31N 52°25' E 004°47'4 7.8
2017-Jun-21 12:00N 52°27' E 004°41'3 6.4
2017-Jun-21 11:30N 52°28' E 004°36'1 1.0
2017-Jun-21 11:00N 52°28' E 004°36'0 0.9
2017-Jun-21 10:30N 52°28' E 004°35'0 0.3
2017-Jun-21 10:00N 52°28' E 004°35'0 0.0
2017-Jun-21 09:30N 52°28' E 004°35'0 0.0
2017-Jun-21 09:00N 52°28' E 004°35'0 0.0
2017-Jun-21 08:30N 52°28' E 004°35'1 1.1
2017-Jun-21 08:00N 52°28' E 004°36'0 0.0
2017-Jun-21 07:30N 52°28' E 004°36'0 0.0
2017-Jun-21 07:00N 52°28' E 004°36'0 0.0
2017-Jun-21 06:30N 52°28' E 004°36'0 0.0
2017-Jun-21 06:00N 52°28' E 004°36'0 0.0
2017-Jun-21 05:30N 52°28' E 004°36'0 0.0
2017-Jun-21 05:00N 52°28' E 004°36'0 0.0
2017-Jun-21 04:30N 52°28' E 004°36'0 0.0
2017-Jun-21 04:00N 52°28' E 004°36'0 0.0
2017-Jun-21 03:30N 52°28' E 004°36'0 0.0
2017-Jun-21 03:00N 52°28' E 004°36'0 0.0
2017-Jun-21 02:30N 52°28' E 004°36'0 0.0
2017-Jun-21 02:00N 52°28' E 004°36'0 0.0
2017-Jun-21 01:30N 52°28' E 004°36'0 0.0
2017-Jun-21 01:00N 52°28' E 004°36'0 0.0
2017-Jun-21 00:30N 52°28' E 004°36'0 0.0
2017-Jun-21 00:00N 52°28' E 004°36'0 0.0
2017-Jun-20 23:30N 52°28' E 004°36'0 0.0
2017-Jun-20 23:00N 52°28' E 004°36'0 0.0
2017-Jun-20 22:30N 52°28' E 004°36'0 0.0
2017-Jun-20 22:00N 52°28' E 004°36'0 0.0
2017-Jun-20 21:30N 52°28' E 004°36'0 0.0
2017-Jun-20 21:00N 52°28' E 004°36'0 0.0
2017-Jun-20 20:30N 52°28' E 004°36'0 0.0
2017-Jun-20 20:00N 52°28' E 004°36'0 0.0
2017-Jun-20 19:30N 52°28' E 004°36'0 0.0
2017-Jun-20 19:00N 52°28' E 004°36'0 0.6
2017-Jun-20 18:30N 52°28' E 004°36'1 2.0
2017-Jun-20 18:01N 52°28' E 004°38'4 7.5
2017-Jun-20 17:30N 52°26' E 004°43'4 7.2
2017-Jun-20 17:00N 52°26' E 004°49'0 0.0
2017-Jun-20 16:30N 52°26' E 004°49'0 0.0
2017-Jun-20 16:00N 52°26' E 004°49'0 0.0
2017-Jun-20 15:30N 52°26' E 004°49'0 0.0
2017-Jun-20 15:01N 52°26' E 004°49'0 0.0
2017-Jun-20 14:00N 52°26' E 004°49'0 0.0
2017-Jun-20 13:31N 52°26' E 004°49'0 0.0
2017-Jun-20 13:01N 52°26' E 004°49'0 0.0
2017-Jun-20 12:30N 52°26' E 004°49'0 0.0
2017-Jun-20 12:00N 52°26' E 004°49'0 0.0
2017-Jun-20 11:30N 52°26' E 004°49'0 0.0
2017-Jun-20 11:00N 52°26' E 004°49'0 0.0
2017-Jun-20 10:30N 52°26' E 004°49'0 0.0
2017-Jun-20 10:00N 52°26' E 004°49'0 0.0
2017-Jun-20 09:31N 52°26' E 004°49'0 0.0
2017-Jun-20 09:01N 52°26' E 004°49'0 0.0
2017-Jun-20 08:31N 52°26' E 004°49'0 0.0
2017-Jun-20 08:00N 52°26' E 004°49'0 0.0
2017-Jun-20 07:30N 52°26' E 004°49'0 0.0
2017-Jun-20 07:01N 52°26' E 004°49'0 0.0
2017-Jun-20 06:30N 52°26' E 004°49'0 0.0
2017-Jun-20 06:00N 52°26' E 004°49'0 0.0
2017-Jun-20 05:30N 52°26' E 004°49'0 0.0
2017-Jun-20 05:00N 52°26' E 004°49'0 0.0
2017-Jun-20 04:30N 52°26' E 004°49'0 0.0
2017-Jun-20 04:00N 52°26' E 004°49'0 0.0
2017-Jun-20 03:30N 52°26' E 004°49'0 0.0
2017-Jun-20 03:00N 52°26' E 004°49'0 0.0
2017-Jun-20 02:30N 52°26' E 004°49'0 0.0
2017-Jun-20 02:00N 52°26' E 004°49'0 0.0
2017-Jun-20 01:30N 52°26' E 004°49'0 0.0
2017-Jun-20 01:00N 52°26' E 004°49'0 0.0
2017-Jun-20 00:30N 52°26' E 004°49'0 0.0
2017-Jun-20 00:00N 52°26' E 004°49'0 0.0
2017-Jun-19 23:30N 52°26' E 004°49'0 0.0
2017-Jun-19 23:01N 52°26' E 004°49'0 0.0
2017-Jun-19 22:30N 52°26' E 004°49'0 0.0
2017-Jun-19 22:00N 52°26' E 004°49'0 0.0
2017-Jun-19 21:30N 52°26' E 004°49'0 0.0
2017-Jun-19 21:00N 52°26' E 004°49'0 0.0
2017-Jun-19 20:30N 52°26' E 004°49'0 0.7
2017-Jun-19 20:00N 52°25' E 004°49'3 6.8
2017-Jun-19 19:30N 52°23' E 004°54'3 5.5
2017-Jun-19 19:01N 52°22' E 004°58'3 6.6
2017-Jun-19 18:30N 52°19' E 005°01'3 6.8
2017-Jun-19 18:00N 52°16' E 005°01'10 6.1
2017-Jun-19 16:24N 52°06' E 005°05'3 7.0
2017-Jun-19 16:00N 52°04' E 005°06'8 6.9
2017-Jun-19 14:47N 51°59' E 005°17'2 5.7
2017-Jun-19 14:30N 51°58' E 005°19'16 5.9
2017-Jun-19 11:43N 51°53' E 005°44'2 8.8
2017-Jun-19 11:30N 51°53' E 005°48'4 7.0
2017-Jun-19 11:00N 51°52' E 005°53'3 6.9
2017-Jun-19 10:30N 51°51' E 005°59'3 6.5
2017-Jun-19 10:00N 51°52' E 006°04'4 8.6
2017-Jun-19 09:30N 51°50' E 006°10'4 8.6
2017-Jun-19 09:00N 51°49' E 006°17'6 8.1
2017-Jun-19 08:17N 51°45' E 006°24'7 7.3
2017-Jun-19 07:20N 51°40' E 006°31'3 8.9
2017-Jun-19 07:00N 51°39' E 006°36'9 6.5
2017-Jun-19 05:38N 51°31' E 006°42'1 9.0
2017-Jun-19 05:31N 51°31' E 006°43'3 5.2
2017-Jun-19 05:01N 51°28' E 006°43'4 7.9
2017-Jun-19 04:30N 51°24' E 006°45'10 1.0
2017-Jun-18 18:33N 51°14' E 006°46'1 9.5
2017-Jun-18 18:29N 51°14' E 006°46'3 5.4
2017-Jun-18 18:00N 51°12' E 006°44'19 6.1
2017-Jun-18 14:50N 50°55' E 006°58'3 6.3
2017-Jun-18 14:17N 50°52' E 007°02'  

Dump ship's entire track history